sensor_id;sensor_type;location;lat;lon;timestamp;temperature;humidity
37646;DHT22;23489;49.600;6.138;2022-07-21T00:02:09;18.60;99.90
37646;DHT22;23489;49.600;6.138;2022-07-21T00:04:35;18.60;99.90
37646;DHT22;23489;49.600;6.138;2022-07-21T00:07:00;18.50;99.90
37646;DHT22;23489;49.600;6.138;2022-07-21T00:09:26;18.50;99.90
37646;DHT22;23489;49.600;6.138;2022-07-21T00:11:52;18.40;99.90
37646;DHT22;23489;49.600;6.138;2022-07-21T00:14:17;18.40;99.90
37646;DHT22;23489;49.600;6.138;2022-07-21T00:16:43;18.50;99.90
37646;DHT22;23489;49.600;6.138;2022-07-21T00:19:09;18.40;99.90
37646;DHT22;23489;49.600;6.138;2022-07-21T00:21:35;18.40;99.90
37646;DHT22;23489;49.600;6.138;2022-07-21T00:24:01;18.40;99.90
37646;DHT22;23489;49.600;6.138;2022-07-21T00:26:27;18.30;99.90
37646;DHT22;23489;49.600;6.138;2022-07-21T00:28:52;18.30;99.90
37646;DHT22;23489;49.600;6.138;2022-07-21T00:31:18;18.30;99.90
37646;DHT22;23489;49.600;6.138;2022-07-21T00:33:44;18.20;99.90
37646;DHT22;23489;49.600;6.138;2022-07-21T00:36:09;18.20;99.90
37646;DHT22;23489;49.600;6.138;2022-07-21T00:38:35;18.20;99.90
37646;DHT22;23489;49.600;6.138;2022-07-21T00:41:01;18.20;99.90
37646;DHT22;23489;49.600;6.138;2022-07-21T00:43:26;18.10;99.90
37646;DHT22;23489;49.600;6.138;2022-07-21T00:45:54;18.10;99.90
37646;DHT22;23489;49.600;6.138;2022-07-21T00:48:19;18.00;99.90
37646;DHT22;23489;49.600;6.138;2022-07-21T00:50:45;18.00;99.90
37646;DHT22;23489;49.600;6.138;2022-07-21T00:53:11;18.10;99.90
37646;DHT22;23489;49.600;6.138;2022-07-21T00:55:36;18.10;99.90
37646;DHT22;23489;49.600;6.138;2022-07-21T00:58:03;18.00;99.90
37646;DHT22;23489;49.600;6.138;2022-07-21T01:00:30;18.00;99.90
37646;DHT22;23489;49.600;6.138;2022-07-21T01:02:57;18.00;99.90
37646;DHT22;23489;49.600;6.138;2022-07-21T01:05:23;18.10;99.90
37646;DHT22;23489;49.600;6.138;2022-07-21T01:07:52;18.10;99.90
37646;DHT22;23489;49.600;6.138;2022-07-21T01:10:21;18.10;99.90
37646;DHT22;23489;49.600;6.138;2022-07-21T01:12:47;18.10;99.90
37646;DHT22;23489;49.600;6.138;2022-07-21T01:15:15;18.10;99.90
37646;DHT22;23489;49.600;6.138;2022-07-21T01:17:41;18.20;99.90
37646;DHT22;23489;49.600;6.138;2022-07-21T01:20:10;18.20;99.90
37646;DHT22;23489;49.600;6.138;2022-07-21T01:22:38;18.20;99.90
37646;DHT22;23489;49.600;6.138;2022-07-21T01:25:05;18.20;99.90
37646;DHT22;23489;49.600;6.138;2022-07-21T01:27:31;18.20;99.90
37646;DHT22;23489;49.600;6.138;2022-07-21T01:29:58;18.20;99.90
37646;DHT22;23489;49.600;6.138;2022-07-21T01:32:24;18.20;99.90
37646;DHT22;23489;49.600;6.138;2022-07-21T01:34:50;18.30;99.90
37646;DHT22;23489;49.600;6.138;2022-07-21T01:37:20;18.30;99.90
37646;DHT22;23489;49.600;6.138;2022-07-21T01:39:50;18.30;99.90
37646;DHT22;23489;49.600;6.138;2022-07-21T01:42:35;18.30;99.90
37646;DHT22;23489;49.600;6.138;2022-07-21T01:45:01;18.30;99.90
37646;DHT22;23489;49.600;6.138;2022-07-21T01:47:26;18.40;99.90
37646;DHT22;23489;49.600;6.138;2022-07-21T01:49:52;18.30;99.90
37646;DHT22;23489;49.600;6.138;2022-07-21T01:52:18;18.30;99.90
37646;DHT22;23489;49.600;6.138;2022-07-21T01:54:43;18.30;99.90
37646;DHT22;23489;49.600;6.138;2022-07-21T01:57:09;18.20;99.90
37646;DHT22;23489;49.600;6.138;2022-07-21T01:59:35;18.30;99.90
37646;DHT22;23489;49.600;6.138;2022-07-21T02:02:01;18.20;99.90
37646;DHT22;23489;49.600;6.138;2022-07-21T02:04:27;18.20;99.90
37646;DHT22;23489;49.600;6.138;2022-07-21T02:06:53;18.10;99.90
37646;DHT22;23489;49.600;6.138;2022-07-21T02:09:18;18.10;99.90
37646;DHT22;23489;49.600;6.138;2022-07-21T02:11:44;18.10;99.90
37646;DHT22;23489;49.600;6.138;2022-07-21T02:14:10;18.00;99.90
37646;DHT22;23489;49.600;6.138;2022-07-21T02:16:35;18.00;99.90
37646;DHT22;23489;49.600;6.138;2022-07-21T02:19:01;18.00;99.90
37646;DHT22;23489;49.600;6.138;2022-07-21T02:21:27;18.00;99.90
37646;DHT22;23489;49.600;6.138;2022-07-21T02:23:52;18.00;99.90
37646;DHT22;23489;49.600;6.138;2022-07-21T02:26:18;17.90;99.90
37646;DHT22;23489;49.600;6.138;2022-07-21T02:28:44;17.90;99.90
37646;DHT22;23489;49.600;6.138;2022-07-21T02:31:09;17.90;99.90
37646;DHT22;23489;49.600;6.138;2022-07-21T02:33:35;17.90;99.90
37646;DHT22;23489;49.600;6.138;2022-07-21T02:36:01;17.90;99.90
37646;DHT22;23489;49.600;6.138;2022-07-21T02:38:27;17.90;99.90
37646;DHT22;23489;49.600;6.138;2022-07-21T02:40:52;18.00;99.90
37646;DHT22;23489;49.600;6.138;2022-07-21T02:43:18;18.00;99.90
37646;DHT22;23489;49.600;6.138;2022-07-21T02:45:44;18.10;99.90
37646;DHT22;23489;49.600;6.138;2022-07-21T02:48:11;18.10;99.90
37646;DHT22;23489;49.600;6.138;2022-07-21T02:50:39;18.10;99.90
37646;DHT22;23489;49.600;6.138;2022-07-21T02:53:14;18.20;99.90
37646;DHT22;23489;49.600;6.138;2022-07-21T02:55:40;18.20;99.90
37646;DHT22;23489;49.600;6.138;2022-07-21T02:58:11;18.30;99.90
37646;DHT22;23489;49.600;6.138;2022-07-21T03:00:39;18.30;99.90
37646;DHT22;23489;49.600;6.138;2022-07-21T03:03:05;18.30;99.90
37646;DHT22;23489;49.600;6.138;2022-07-21T03:05:32;18.30;99.90
37646;DHT22;23489;49.600;6.138;2022-07-21T03:07:58;18.30;99.90
37646;DHT22;23489;49.600;6.138;2022-07-21T03:10:23;18.30;99.90
37646;DHT22;23489;49.600;6.138;2022-07-21T03:12:49;18.30;99.90
37646;DHT22;23489;49.600;6.138;2022-07-21T03:15:15;18.30;99.90
37646;DHT22;23489;49.600;6.138;2022-07-21T03:17:40;18.30;99.90
37646;DHT22;23489;49.600;6.138;2022-07-21T03:20:06;18.20;99.90
37646;DHT22;23489;49.600;6.138;2022-07-21T03:22:32;18.20;99.90
37646;DHT22;23489;49.600;6.138;2022-07-21T03:24:57;18.20;99.90
37646;DHT22;23489;49.600;6.138;2022-07-21T03:27:23;18.20;99.90
37646;DHT22;23489;49.600;6.138;2022-07-21T03:29:49;18.20;99.90
37646;DHT22;23489;49.600;6.138;2022-07-21T03:32:14;18.10;99.90
37646;DHT22;23489;49.600;6.138;2022-07-21T03:34:40;18.00;99.90
37646;DHT22;23489;49.600;6.138;2022-07-21T03:37:05;18.00;99.90
37646;DHT22;23489;49.600;6.138;2022-07-21T03:39:31;17.90;99.90
37646;DHT22;23489;49.600;6.138;2022-07-21T03:41:57;17.90;99.90
37646;DHT22;23489;49.600;6.138;2022-07-21T03:44:22;18.00;99.90
37646;DHT22;23489;49.600;6.138;2022-07-21T03:46:48;18.00;99.90
37646;DHT22;23489;49.600;6.138;2022-07-21T03:49:14;18.10;99.90
37646;DHT22;23489;49.600;6.138;2022-07-21T03:51:39;18.10;99.90
37646;DHT22;23489;49.600;6.138;2022-07-21T03:54:05;18.10;99.90
37646;DHT22;23489;49.600;6.138;2022-07-21T03:56:30;18.20;99.90
37646;DHT22;23489;49.600;6.138;2022-07-21T03:58:56;18.20;99.90
37646;DHT22;23489;49.600;6.138;2022-07-21T04:01:22;18.20;99.90
37646;DHT22;23489;49.600;6.138;2022-07-21T04:03:47;18.20;99.90
37646;DHT22;23489;49.600;6.138;2022-07-21T04:06:13;18.20;99.90
37646;DHT22;23489;49.600;6.138;2022-07-21T04:08:39;18.20;99.90
37646;DHT22;23489;49.600;6.138;2022-07-21T04:11:05;18.20;99.90
37646;DHT22;23489;49.600;6.138;2022-07-21T04:13:30;18.30;99.90
37646;DHT22;23489;49.600;6.138;2022-07-21T04:15:56;18.40;99.90
37646;DHT22;23489;49.600;6.138;2022-07-21T04:18:22;18.40;99.90
37646;DHT22;23489;49.600;6.138;2022-07-21T04:20:48;18.40;99.90
37646;DHT22;23489;49.600;6.138;2022-07-21T04:23:13;18.40;99.90
37646;DHT22;23489;49.600;6.138;2022-07-21T04:25:39;18.40;99.90
37646;DHT22;23489;49.600;6.138;2022-07-21T04:28:06;18.40;99.90
37646;DHT22;23489;49.600;6.138;2022-07-21T04:30:32;18.40;99.90
37646;DHT22;23489;49.600;6.138;2022-07-21T04:32:58;18.40;99.90
37646;DHT22;23489;49.600;6.138;2022-07-21T04:35:24;18.40;99.90
37646;DHT22;23489;49.600;6.138;2022-07-21T04:37:49;18.40;99.90
37646;DHT22;23489;49.600;6.138;2022-07-21T04:40:16;18.40;99.90
37646;DHT22;23489;49.600;6.138;2022-07-21T04:42:42;18.40;99.90
37646;DHT22;23489;49.600;6.138;2022-07-21T04:45:10;18.50;99.90
37646;DHT22;23489;49.600;6.138;2022-07-21T04:47:49;18.50;99.90
37646;DHT22;23489;49.600;6.138;2022-07-21T04:50:18;18.50;99.90
37646;DHT22;23489;49.600;6.138;2022-07-21T04:52:44;18.60;99.90
37646;DHT22;23489;49.600;6.138;2022-07-21T04:55:10;18.60;99.90
37646;DHT22;23489;49.600;6.138;2022-07-21T04:57:37;18.60;99.90
37646;DHT22;23489;49.600;6.138;2022-07-21T05:00:06;18.60;99.90
37646;DHT22;23489;49.600;6.138;2022-07-21T05:02:31;18.60;99.90
37646;DHT22;23489;49.600;6.138;2022-07-21T05:04:57;18.60;99.90
37646;DHT22;23489;49.600;6.138;2022-07-21T05:07:23;18.60;99.90
37646;DHT22;23489;49.600;6.138;2022-07-21T05:09:48;18.70;99.90
37646;DHT22;23489;49.600;6.138;2022-07-21T05:12:14;18.80;99.90
37646;DHT22;23489;49.600;6.138;2022-07-21T05:14:39;18.90;99.90
37646;DHT22;23489;49.600;6.138;2022-07-21T05:17:05;18.90;99.90
37646;DHT22;23489;49.600;6.138;2022-07-21T05:19:31;18.90;99.90
37646;DHT22;23489;49.600;6.138;2022-07-21T05:21:56;19.00;99.90
37646;DHT22;23489;49.600;6.138;2022-07-21T05:24:22;19.00;99.90
37646;DHT22;23489;49.600;6.138;2022-07-21T05:26:50;19.00;99.90
37646;DHT22;23489;49.600;6.138;2022-07-21T05:29:16;19.00;99.90
37646;DHT22;23489;49.600;6.138;2022-07-21T05:31:41;19.20;99.90
37646;DHT22;23489;49.600;6.138;2022-07-21T05:34:07;19.20;99.90
37646;DHT22;23489;49.600;6.138;2022-07-21T05:36:33;19.30;99.90
37646;DHT22;23489;49.600;6.138;2022-07-21T05:38:59;19.40;99.90
37646;DHT22;23489;49.600;6.138;2022-07-21T05:41:24;19.40;99.90
37646;DHT22;23489;49.600;6.138;2022-07-21T05:43:50;19.50;99.90
37646;DHT22;23489;49.600;6.138;2022-07-21T05:46:15;19.70;99.90
37646;DHT22;23489;49.600;6.138;2022-07-21T05:48:41;19.80;99.90
37646;DHT22;23489;49.600;6.138;2022-07-21T05:51:07;20.00;99.90
37646;DHT22;23489;49.600;6.138;2022-07-21T05:53:33;20.20;99.90
37646;DHT22;23489;49.600;6.138;2022-07-21T05:55:58;20.20;99.90
37646;DHT22;23489;49.600;6.138;2022-07-21T05:58:24;20.30;99.90
37646;DHT22;23489;49.600;6.138;2022-07-21T06:00:51;20.40;99.90
37646;DHT22;23489;49.600;6.138;2022-07-21T06:03:50;20.60;99.90
37646;DHT22;23489;49.600;6.138;2022-07-21T06:06:17;20.90;99.90
37646;DHT22;23489;49.600;6.138;2022-07-21T06:08:46;21.30;99.90
37646;DHT22;23489;49.600;6.138;2022-07-21T06:11:14;21.50;99.90
37646;DHT22;23489;49.600;6.138;2022-07-21T06:13:40;21.50;99.90
37646;DHT22;23489;49.600;6.138;2022-07-21T06:16:07;21.50;99.90
37646;DHT22;23489;49.600;6.138;2022-07-21T06:18:33;21.50;99.90
37646;DHT22;23489;49.600;6.138;2022-07-21T06:20:59;21.70;99.90
37646;DHT22;23489;49.600;6.138;2022-07-21T06:23:25;21.50;99.90
37646;DHT22;23489;49.600;6.138;2022-07-21T06:25:52;21.30;99.90
37646;DHT22;23489;49.600;6.138;2022-07-21T06:28:18;21.40;99.90
37646;DHT22;23489;49.600;6.138;2022-07-21T06:30:44;22.10;99.90
37646;DHT22;23489;49.600;6.138;2022-07-21T06:33:10;23.10;99.90
37646;DHT22;23489;49.600;6.138;2022-07-21T06:35:36;24.20;99.90
37646;DHT22;23489;49.600;6.138;2022-07-21T06:38:01;24.60;99.90
37646;DHT22;23489;49.600;6.138;2022-07-21T06:40:27;23.90;99.90
37646;DHT22;23489;49.600;6.138;2022-07-21T06:42:53;23.60;99.90
37646;DHT22;23489;49.600;6.138;2022-07-21T06:45:18;22.60;99.90
37646;DHT22;23489;49.600;6.138;2022-07-21T06:47:44;22.30;99.90
37646;DHT22;23489;49.600;6.138;2022-07-21T06:50:10;21.90;99.90
37646;DHT22;23489;49.600;6.138;2022-07-21T06:52:36;21.10;99.90
37646;DHT22;23489;49.600;6.138;2022-07-21T06:55:05;21.50;99.90
37646;DHT22;23489;49.600;6.138;2022-07-21T06:57:31;22.80;99.90
37646;DHT22;23489;49.600;6.138;2022-07-21T06:59:58;23.90;99.90
37646;DHT22;23489;49.600;6.138;2022-07-21T07:02:23;22.90;99.90
37646;DHT22;23489;49.600;6.138;2022-07-21T07:04:49;23.00;99.90
37646;DHT22;23489;49.600;6.138;2022-07-21T07:07:14;23.20;99.90
37646;DHT22;23489;49.600;6.138;2022-07-21T07:09:40;23.90;99.90
37646;DHT22;23489;49.600;6.138;2022-07-21T07:12:07;24.20;99.90
37646;DHT22;23489;49.600;6.138;2022-07-21T07:14:35;24.00;99.90
37646;DHT22;23489;49.600;6.138;2022-07-21T07:17:02;23.70;99.90
37646;DHT22;23489;49.600;6.138;2022-07-21T07:19:28;23.10;99.90
37646;DHT22;23489;49.600;6.138;2022-07-21T07:21:54;22.50;99.90
37646;DHT22;23489;49.600;6.138;2022-07-21T07:24:20;22.20;99.90
37646;DHT22;23489;49.600;6.138;2022-07-21T07:26:46;22.10;99.90
37646;DHT22;23489;49.600;6.138;2022-07-21T07:29:13;22.10;99.90
37646;DHT22;23489;49.600;6.138;2022-07-21T07:31:40;22.30;99.90
37646;DHT22;23489;49.600;6.138;2022-07-21T07:34:06;22.20;99.90
37646;DHT22;23489;49.600;6.138;2022-07-21T07:36:32;22.20;99.90
37646;DHT22;23489;49.600;6.138;2022-07-21T07:38:58;22.40;99.90
37646;DHT22;23489;49.600;6.138;2022-07-21T07:41:25;22.60;99.90
37646;DHT22;23489;49.600;6.138;2022-07-21T07:43:52;22.70;99.90
37646;DHT22;23489;49.600;6.138;2022-07-21T07:46:19;22.60;99.90
37646;DHT22;23489;49.600;6.138;2022-07-21T07:48:45;22.50;99.90
37646;DHT22;23489;49.600;6.138;2022-07-21T07:51:12;22.50;99.90
37646;DHT22;23489;49.600;6.138;2022-07-21T07:53:38;22.50;99.90
37646;DHT22;23489;49.600;6.138;2022-07-21T07:56:05;22.20;99.90
37646;DHT22;23489;49.600;6.138;2022-07-21T07:58:31;23.00;99.90
37646;DHT22;23489;49.600;6.138;2022-07-21T08:00:57;23.80;99.90
37646;DHT22;23489;49.600;6.138;2022-07-21T08:03:24;24.10;99.90
37646;DHT22;23489;49.600;6.138;2022-07-21T08:05:50;24.80;99.90
37646;DHT22;23489;49.600;6.138;2022-07-21T08:08:17;25.10;99.90
37646;DHT22;23489;49.600;6.138;2022-07-21T08:10:44;24.80;99.90
37646;DHT22;23489;49.600;6.138;2022-07-21T08:13:20;24.50;99.90
37646;DHT22;23489;49.600;6.138;2022-07-21T08:15:47;24.20;99.90
37646;DHT22;23489;49.600;6.138;2022-07-21T08:18:13;24.10;99.90
37646;DHT22;23489;49.600;6.138;2022-07-21T08:20:39;24.60;99.90
37646;DHT22;23489;49.600;6.138;2022-07-21T08:23:06;25.10;99.90
37646;DHT22;23489;49.600;6.138;2022-07-21T08:25:32;25.00;99.90
37646;DHT22;23489;49.600;6.138;2022-07-21T08:27:57;24.80;99.90
37646;DHT22;23489;49.600;6.138;2022-07-21T08:30:24;24.40;99.90
37646;DHT22;23489;49.600;6.138;2022-07-21T08:32:50;24.00;99.90
37646;DHT22;23489;49.600;6.138;2022-07-21T08:35:15;23.70;99.90
37646;DHT22;23489;49.600;6.138;2022-07-21T08:37:41;22.80;99.90
37646;DHT22;23489;49.600;6.138;2022-07-21T08:40:10;22.70;99.90
37646;DHT22;23489;49.600;6.138;2022-07-21T08:42:37;22.70;99.90
37646;DHT22;23489;49.600;6.138;2022-07-21T08:45:03;22.80;99.90
37646;DHT22;23489;49.600;6.138;2022-07-21T08:47:30;22.80;99.90
37646;DHT22;23489;49.600;6.138;2022-07-21T08:49:57;22.90;99.90
37646;DHT22;23489;49.600;6.138;2022-07-21T08:52:23;22.80;99.90
37646;DHT22;23489;49.600;6.138;2022-07-21T08:54:50;22.50;99.90
37646;DHT22;23489;49.600;6.138;2022-07-21T08:57:16;22.50;99.90
37646;DHT22;23489;49.600;6.138;2022-07-21T08:59:43;22.60;99.90
37646;DHT22;23489;49.600;6.138;2022-07-21T09:02:28;22.80;99.90
37646;DHT22;23489;49.600;6.138;2022-07-21T09:04:55;23.10;99.90
37646;DHT22;23489;49.600;6.138;2022-07-21T09:07:21;23.20;99.90
37646;DHT22;23489;49.600;6.138;2022-07-21T09:09:59;22.90;99.90
37646;DHT22;23489;49.600;6.138;2022-07-21T09:12:26;23.00;99.90
37646;DHT22;23489;49.600;6.138;2022-07-21T09:14:52;22.90;99.90
37646;DHT22;23489;49.600;6.138;2022-07-21T09:17:19;22.90;99.90
37646;DHT22;23489;49.600;6.138;2022-07-21T09:19:46;22.70;99.90
37646;DHT22;23489;49.600;6.138;2022-07-21T09:22:15;22.60;99.90
37646;DHT22;23489;49.600;6.138;2022-07-21T09:24:51;22.80;99.90
37646;DHT22;23489;49.600;6.138;2022-07-21T09:27:22;23.50;99.90
37646;DHT22;23489;49.600;6.138;2022-07-21T09:29:56;24.20;99.90
37646;DHT22;23489;49.600;6.138;2022-07-21T09:32:28;24.50;99.90
37646;DHT22;23489;49.600;6.138;2022-07-21T09:37:32;24.00;99.90
37646;DHT22;23489;49.600;6.138;2022-07-21T09:40:00;23.90;99.90
37646;DHT22;23489;49.600;6.138;2022-07-21T09:42:32;23.90;99.90
37646;DHT22;23489;49.600;6.138;2022-07-21T09:45:01;23.90;99.90
37646;DHT22;23489;49.600;6.138;2022-07-21T09:47:28;24.00;99.90
37646;DHT22;23489;49.600;6.138;2022-07-21T09:49:55;24.10;99.90
37646;DHT22;23489;49.600;6.138;2022-07-21T09:52:35;24.00;99.90
37646;DHT22;23489;49.600;6.138;2022-07-21T09:57:33;23.50;99.90
37646;DHT22;23489;49.600;6.138;2022-07-21T09:59:59;23.70;99.90
37646;DHT22;23489;49.600;6.138;2022-07-21T10:02:26;23.60;99.90
37646;DHT22;23489;49.600;6.138;2022-07-21T10:04:58;23.80;99.90
37646;DHT22;23489;49.600;6.138;2022-07-21T10:07:25;24.30;99.90
37646;DHT22;23489;49.600;6.138;2022-07-21T10:09:52;25.30;99.90
37646;DHT22;23489;49.600;6.138;2022-07-21T10:12:18;24.80;99.90
37646;DHT22;23489;49.600;6.138;2022-07-21T10:14:44;25.70;99.90
37646;DHT22;23489;49.600;6.138;2022-07-21T10:17:10;26.00;99.90
37646;DHT22;23489;49.600;6.138;2022-07-21T10:20:31;26.90;99.90
37646;DHT22;23489;49.600;6.138;2022-07-21T10:25:30;25.50;99.90
37646;DHT22;23489;49.600;6.138;2022-07-21T10:30:42;25.30;99.90
37646;DHT22;23489;49.600;6.138;2022-07-21T10:33:09;24.50;99.90
37646;DHT22;23489;49.600;6.138;2022-07-21T10:35:36;24.50;99.90
37646;DHT22;23489;49.600;6.138;2022-07-21T10:38:04;24.90;99.90
37646;DHT22;23489;49.600;6.138;2022-07-21T10:50:49;24.90;99.90
37646;DHT22;23489;49.600;6.138;2022-07-21T10:53:17;24.60;99.90
37646;DHT22;23489;49.600;6.138;2022-07-21T10:55:48;25.00;99.90
37646;DHT22;23489;49.600;6.138;2022-07-21T10:58:27;25.40;99.90
37646;DHT22;23489;49.600;6.138;2022-07-21T11:00:59;25.50;99.90
37646;DHT22;23489;49.600;6.138;2022-07-21T11:08:38;25.60;99.90
37646;DHT22;23489;49.600;6.138;2022-07-21T11:22:22;23.80;99.90
37646;DHT22;23489;49.600;6.138;2022-07-21T11:27:18;24.40;99.90
37646;DHT22;23489;49.600;6.138;2022-07-21T11:29:46;24.80;99.90
37646;DHT22;23489;49.600;6.138;2022-07-21T11:32:13;25.00;99.90
37646;DHT22;23489;49.600;6.138;2022-07-21T11:37:11;25.30;99.90
37646;DHT22;23489;49.600;6.138;2022-07-21T11:39:38;25.00;99.90
37646;DHT22;23489;49.600;6.138;2022-07-21T11:42:10;25.30;99.90
37646;DHT22;23489;49.600;6.138;2022-07-21T11:44:37;25.20;99.90
37646;DHT22;23489;49.600;6.138;2022-07-21T11:47:04;25.10;99.90
37646;DHT22;23489;49.600;6.138;2022-07-21T11:49:32;25.10;99.90
37646;DHT22;23489;49.600;6.138;2022-07-21T11:52:04;25.00;99.90
37646;DHT22;23489;49.600;6.138;2022-07-21T11:54:37;24.30;99.90
37646;DHT22;23489;49.600;6.138;2022-07-21T11:57:05;24.20;99.90
37646;DHT22;23489;49.600;6.138;2022-07-21T11:59:32;24.60;99.90
37646;DHT22;23489;49.600;6.138;2022-07-21T12:01:59;25.00;99.90
37646;DHT22;23489;49.600;6.138;2022-07-21T12:04:43;25.30;99.90
37646;DHT22;23489;49.600;6.138;2022-07-21T12:07:42;25.80;99.90
37646;DHT22;23489;49.600;6.138;2022-07-21T12:10:16;25.90;99.90
37646;DHT22;23489;49.600;6.138;2022-07-21T12:12:47;26.00;99.90
37646;DHT22;23489;49.600;6.138;2022-07-21T12:15:27;26.10;99.90
37646;DHT22;23489;49.600;6.138;2022-07-21T12:18:02;26.20;99.90
37646;DHT22;23489;49.600;6.138;2022-07-21T12:20:33;26.40;99.90
37646;DHT22;23489;49.600;6.138;2022-07-21T12:23:02;26.30;99.60
37646;DHT22;23489;49.600;6.138;2022-07-21T12:25:39;26.40;99.90
37646;DHT22;23489;49.600;6.138;2022-07-21T12:28:06;26.60;99.10
37646;DHT22;23489;49.600;6.138;2022-07-21T12:30:40;26.60;98.40
37646;DHT22;23489;49.600;6.138;2022-07-21T12:33:09;26.50;98.30
37646;DHT22;23489;49.600;6.138;2022-07-21T12:35:38;26.60;98.50
37646;DHT22;23489;49.600;6.138;2022-07-21T12:38:13;26.40;98.50
37646;DHT22;23489;49.600;6.138;2022-07-21T12:40:45;26.50;98.30
37646;DHT22;23489;49.600;6.138;2022-07-21T12:43:16;26.30;97.50
37646;DHT22;23489;49.600;6.138;2022-07-21T12:45:52;26.40;97.40
37646;DHT22;23489;49.600;6.138;2022-07-21T12:48:20;26.60;96.80
37646;DHT22;23489;49.600;6.138;2022-07-21T12:53:40;26.80;96.70
37646;DHT22;23489;49.600;6.138;2022-07-21T12:56:07;26.40;96.40
37646;DHT22;23489;49.600;6.138;2022-07-21T12:58:33;26.20;97.40
37646;DHT22;23489;49.600;6.138;2022-07-21T13:00:59;26.30;97.40
37646;DHT22;23489;49.600;6.138;2022-07-21T13:03:27;26.20;97.20
37646;DHT22;23489;49.600;6.138;2022-07-21T13:05:53;26.00;97.60
37646;DHT22;23489;49.600;6.138;2022-07-21T13:08:19;26.10;97.40
37646;DHT22;23489;49.600;6.138;2022-07-21T13:10:45;26.30;97.20
37646;DHT22;23489;49.600;6.138;2022-07-21T13:13:10;26.20;97.60
37646;DHT22;23489;49.600;6.138;2022-07-21T13:15:36;26.30;97.50
37646;DHT22;23489;49.600;6.138;2022-07-21T13:18:02;26.60;97.20
37646;DHT22;23489;49.600;6.138;2022-07-21T13:20:28;26.70;96.40
37646;DHT22;23489;49.600;6.138;2022-07-21T13:22:53;26.60;95.80
37646;DHT22;23489;49.600;6.138;2022-07-21T13:25:19;26.60;96.00
37646;DHT22;23489;49.600;6.138;2022-07-21T13:27:45;26.10;96.90
37646;DHT22;23489;49.600;6.138;2022-07-21T13:30:11;26.20;97.10
37646;DHT22;23489;49.600;6.138;2022-07-21T13:32:37;26.30;97.20
37646;DHT22;23489;49.600;6.138;2022-07-21T13:35:06;26.60;96.70
37646;DHT22;23489;49.600;6.138;2022-07-21T13:37:32;26.80;95.60
37646;DHT22;23489;49.600;6.138;2022-07-21T13:39:58;26.60;96.00
37646;DHT22;23489;49.600;6.138;2022-07-21T13:42:24;26.60;96.40
37646;DHT22;23489;49.600;6.138;2022-07-21T13:44:50;26.40;96.60
37646;DHT22;23489;49.600;6.138;2022-07-21T13:47:16;26.40;96.70
37646;DHT22;23489;49.600;6.138;2022-07-21T13:49:41;26.10;96.70
37646;DHT22;23489;49.600;6.138;2022-07-21T13:52:07;26.00;96.30
37646;DHT22;23489;49.600;6.138;2022-07-21T13:54:34;26.10;96.70
37646;DHT22;23489;49.600;6.138;2022-07-21T13:57:00;26.00;96.40
37646;DHT22;23489;49.600;6.138;2022-07-21T13:59:26;25.80;96.80
37646;DHT22;23489;49.600;6.138;2022-07-21T14:01:52;25.70;97.10
37646;DHT22;23489;49.600;6.138;2022-07-21T14:04:18;25.60;97.20
37646;DHT22;23489;49.600;6.138;2022-07-21T14:06:44;25.90;97.40
37646;DHT22;23489;49.600;6.138;2022-07-21T14:09:13;26.20;97.00
37646;DHT22;23489;49.600;6.138;2022-07-21T14:11:39;26.40;96.70
37646;DHT22;23489;49.600;6.138;2022-07-21T14:14:04;26.40;96.10
37646;DHT22;23489;49.600;6.138;2022-07-21T14:16:30;26.60;96.00
37646;DHT22;23489;49.600;6.138;2022-07-21T14:18:55;26.60;96.00
37646;DHT22;23489;49.600;6.138;2022-07-21T14:21:21;27.00;95.90
37646;DHT22;23489;49.600;6.138;2022-07-21T14:23:46;27.20;95.70
37646;DHT22;23489;49.600;6.138;2022-07-21T14:26:12;27.20;95.10
37646;DHT22;23489;49.600;6.138;2022-07-21T14:28:37;27.10;94.60
37646;DHT22;23489;49.600;6.138;2022-07-21T14:31:03;27.20;94.30
37646;DHT22;23489;49.600;6.138;2022-07-21T14:33:29;27.00;94.60
37646;DHT22;23489;49.600;6.138;2022-07-21T14:35:55;27.00;94.60
37646;DHT22;23489;49.600;6.138;2022-07-21T14:38:21;27.10;94.50
37646;DHT22;23489;49.600;6.138;2022-07-21T14:40:46;27.10;94.80
37646;DHT22;23489;49.600;6.138;2022-07-21T14:43:12;26.70;95.00
37646;DHT22;23489;49.600;6.138;2022-07-21T14:45:38;26.60;95.40
37646;DHT22;23489;49.600;6.138;2022-07-21T14:48:03;26.60;95.80
37646;DHT22;23489;49.600;6.138;2022-07-21T14:50:29;26.70;95.60
37646;DHT22;23489;49.600;6.138;2022-07-21T14:52:55;26.70;95.60
37646;DHT22;23489;49.600;6.138;2022-07-21T14:55:22;26.50;95.90
37646;DHT22;23489;49.600;6.138;2022-07-21T14:57:50;26.30;96.00
37646;DHT22;23489;49.600;6.138;2022-07-21T15:00:16;26.50;95.90
37646;DHT22;23489;49.600;6.138;2022-07-21T15:02:41;26.60;95.60
37646;DHT22;23489;49.600;6.138;2022-07-21T15:05:07;26.70;95.90
37646;DHT22;23489;49.600;6.138;2022-07-21T15:07:33;26.70;95.70
37646;DHT22;23489;49.600;6.138;2022-07-21T15:09:58;26.30;95.90
37646;DHT22;23489;49.600;6.138;2022-07-21T15:12:24;26.00;96.40
37646;DHT22;23489;49.600;6.138;2022-07-21T15:14:50;26.00;96.90
37646;DHT22;23489;49.600;6.138;2022-07-21T15:17:16;25.90;96.90
37646;DHT22;23489;49.600;6.138;2022-07-21T15:19:43;26.00;97.10
37646;DHT22;23489;49.600;6.138;2022-07-21T15:22:08;26.20;96.90
37646;DHT22;23489;49.600;6.138;2022-07-21T15:24:35;26.30;96.80
37646;DHT22;23489;49.600;6.138;2022-07-21T15:27:00;26.40;96.50
37646;DHT22;23489;49.600;6.138;2022-07-21T15:29:26;26.30;96.50
37646;DHT22;23489;49.600;6.138;2022-07-21T15:31:52;26.20;96.70
37646;DHT22;23489;49.600;6.138;2022-07-21T15:34:17;26.20;96.80
37646;DHT22;23489;49.600;6.138;2022-07-21T15:36:43;26.20;96.80
37646;DHT22;23489;49.600;6.138;2022-07-21T15:39:09;26.10;97.00
37646;DHT22;23489;49.600;6.138;2022-07-21T15:41:36;26.10;97.10
37646;DHT22;23489;49.600;6.138;2022-07-21T15:44:04;26.10;97.00
37646;DHT22;23489;49.600;6.138;2022-07-21T15:46:31;25.90;97.10
37646;DHT22;23489;49.600;6.138;2022-07-21T15:48:56;25.60;97.60
37646;DHT22;23489;49.600;6.138;2022-07-21T15:51:22;25.80;97.70
37646;DHT22;23489;49.600;6.138;2022-07-21T15:53:48;25.80;97.60
37646;DHT22;23489;49.600;6.138;2022-07-21T15:56:14;26.00;97.50
37646;DHT22;23489;49.600;6.138;2022-07-21T15:58:40;25.90;97.60
37646;DHT22;23489;49.600;6.138;2022-07-21T16:01:26;25.50;98.00
37646;DHT22;23489;49.600;6.138;2022-07-21T16:03:52;25.40;98.20
37646;DHT22;23489;49.600;6.138;2022-07-21T16:06:18;25.50;98.10
37646;DHT22;23489;49.600;6.138;2022-07-21T16:08:44;25.50;97.60
37646;DHT22;23489;49.600;6.138;2022-07-21T16:11:09;25.00;98.20
37646;DHT22;23489;49.600;6.138;2022-07-21T16:13:35;24.90;98.60
37646;DHT22;23489;49.600;6.138;2022-07-21T16:16:01;24.90;98.80